UUDD 181100Z 06006MPS 9999 -RA NSC 09/04 Q1006 R14R/290042 NOSIG
QNH:(hPa/inHg/mmHg)1006 / 29.71 / 755
QFE:(hPa/inHg/mmHg)984 / 29.06 / 738
Temperature9
Dew Point4
Visibility> 10000
WeatherLight Rain
Cloud Cover
Transition Altitude10000 ft.
Transition LevelFL120
SQUAWK